Time;durP1;ratioP1;P1;durP2;ratioP2;P2;SDS_P1;SDS_P2;PMS_P1;PMS_P2;Temp;Humidity;BMP_temperature;BMP_pressure;BME280_temperature;BME280_humidity;BME280_pressure;Samples;Min_cycle;Max_cycle;Signal;HPM_P1;HPM_P2
2021/12/03 00:01:17;;;;;;;6.07;3.70;;;2.70;90.00;;;;;;5091994;28;20382;-74
2021/12/03 00:03:45;;;;;;;7.05;3.70;;;2.60;89.90;;;;;;5093200;28;20028;-72
2021/12/03 00:06:13;;;;;;;7.00;3.80;;;2.70;89.90;;;;;;5091906;28;20024;-73
2021/12/03 00:08:38;;;;;;;5.75;3.42;;;2.60;89.80;;;;;;5093029;28;20043;-74
2021/12/03 00:11:05;;;;;;;6.75;3.92;;;2.60;89.90;;;;;;5091789;28;20020;-73
2021/12/03 00:13:32;;;;;;;6.18;3.35;;;2.60;89.90;;;;;;5093176;28;20498;-74
2021/12/03 00:15:59;;;;;;;11.38;4.20;;;2.50;89.90;;;;;;5091744;28;20492;-74
2021/12/03 00:18:25;;;;;;;9.38;4.10;;;2.50;90.00;;;;;;5091676;28;20035;-74
2021/12/03 00:20:51;;;;;;;10.30;4.22;;;2.50;90.00;;;;;;5091776;28;20036;-74
2021/12/03 00:23:21;;;;;;;5.65;3.88;;;2.50;90.00;;;;;;5093042;28;20039;-74
2021/12/03 00:25:46;;;;;;;4.50;3.08;;;2.50;90.00;;;;;;5091601;28;20035;-75
2021/12/03 00:28:12;;;;;;;8.10;4.00;;;2.50;90.00;;;;;;5091628;28;20020;-74
2021/12/03 00:30:38;;;;;;;5.50;3.70;;;2.60;90.10;;;;;;5091678;28;20039;-74
2021/12/03 00:33:06;;;;;;;7.28;3.88;;;2.60;90.00;;;;;;5091667;28;20028;-73
2021/12/03 00:35:32;;;;;;;6.78;4.00;;;2.60;90.00;;;;;;5092821;28;20036;-73
2021/12/03 00:37:58;;;;;;;5.10;3.70;;;2.60;90.00;;;;;;5091490;28;20031;-74
2021/12/03 00:40:31;;;;;;;6.63;3.75;;;2.60;90.00;;;;;;5091424;28;20035;-73
2021/12/03 00:42:58;;;;;;;6.93;3.78;;;2.60;90.00;;;;;;5092845;28;20035;-72
2021/12/03 00:45:25;;;;;;;7.63;3.70;;;2.60;90.00;;;;;;5091218;28;20032;-74
2021/12/03 00:47:51;;;;;;;5.68;3.95;;;2.60;90.00;;;;;;5091440;28;20020;-73
2021/12/03 00:50:21;;;;;;;7.45;3.80;;;2.60;90.00;;;;;;5092641;28;20405;-74
2021/12/03 00:52:47;;;;;;;8.43;4.25;;;2.60;90.00;;;;;;5091361;28;20077;-74
2021/12/03 00:55:14;;;;;;;7.63;4.00;;;2.60;90.00;;;;;;5091278;28;20127;-74
2021/12/03 00:57:39;;;;;;;6.65;3.95;;;2.60;90.00;;;;;;5093164;28;20048;-74
2021/12/03 01:00:10;;;;;;;8.55;3.83;;;2.60;90.00;;;;;;5095329;28;20507;-73
2021/12/03 01:02:36;;;;;;;6.47;3.90;;;2.50;90.00;;;;;;5095325;28;20032;-74
2021/12/03 01:05:02;;;;;;;8.10;4.60;;;2.50;90.00;;;;;;5095265;28;20479;-75
2021/12/03 01:07:28;;;;;;;7.40;3.90;;;2.60;90.00;;;;;;5095076;28;20073;-75
2021/12/03 01:09:54;;;;;;;5.55;4.20;;;2.50;90.00;;;;;;5095223;28;20103;-75
2021/12/03 01:12:19;;;;;;;5.63;4.40;;;2.50;90.00;;;;;;5096473;28;20025;-76
2021/12/03 01:14:45;;;;;;;4.70;3.65;;;2.50;90.00;;;;;;5096390;28;20158;-74
2021/12/03 01:17:10;;;;;;;6.43;4.40;;;2.50;90.00;;;;;;5095450;28;20051;-74
2021/12/03 01:19:36;;;;;;;7.30;4.05;;;2.50;90.00;;;;;;5095143;28;20310;-74
2021/12/03 01:22:02;;;;;;;6.30;3.65;;;2.60;90.00;;;;;;5094950;28;20434;-74
2021/12/03 01:24:28;;;;;;;7.43;3.95;;;2.60;90.00;;;;;;5096149;28;20392;-75
2021/12/03 01:26:54;;;;;;;6.05;3.90;;;2.60;90.10;;;;;;5094878;28;20020;-75
2021/12/03 01:29:22;;;;;;;6.25;3.80;;;2.60;90.10;;;;;;5094871;28;20025;-75
2021/12/03 01:31:47;;;;;;;8.35;3.95;;;2.60;90.10;;;;;;5094783;28;20082;-74
2021/12/03 01:34:15;;;;;;;6.65;4.03;;;2.60;90.00;;;;;;5094773;28;20043;-74
2021/12/03 01:36:40;;;;;;;7.28;4.10;;;2.60;90.00;;;;;;5094761;28;20484;-74
2021/12/03 01:39:07;;;;;;;6.53;4.10;;;2.70;90.00;;;;;;5094676;28;20027;-75
2021/12/03 01:41:33;;;;;;;7.50;4.25;;;2.70;90.00;;;;;;5094667;28;20028;-74
2021/12/03 01:44:02;;;;;;;6.00;4.32;;;2.70;90.00;;;;;;5095770;28;20032;-75
2021/12/03 01:46:29;;;;;;;4.93;3.97;;;2.80;90.00;;;;;;5094814;28;20047;-74
2021/12/03 01:48:55;;;;;;;7.35;4.22;;;2.80;90.00;;;;;;5095758;28;20024;-74
2021/12/03 01:51:21;;;;;;;5.72;4.15;;;2.80;89.90;;;;;;5095783;28;20103;-74
2021/12/03 01:53:47;;;;;;;8.40;4.55;;;2.80;90.00;;;;;;5094392;28;20081;-74
2021/12/03 01:56:14;;;;;;;6.57;4.13;;;2.90;90.00;;;;;;5095637;28;20031;-74
2021/12/03 01:58:42;;;;;;;5.80;3.97;;;2.90;90.00;;;;;;5094331;28;20082;-74
2021/12/03 02:01:10;;;;;;;5.90;3.78;;;2.90;89.90;;;;;;5094304;28;20028;-74
2021/12/03 02:03:38;;;;;;;7.55;4.47;;;3.00;89.90;;;;;;5094241;28;20043;-74
2021/12/03 02:06:05;;;;;;;8.77;3.85;;;3.00;89.80;;;;;;5094072;28;20027;-74
2021/12/03 02:08:31;;;;;;;8.23;4.53;;;3.00;89.70;;;;;;5092720;28;20050;-74
2021/12/03 02:10:57;;;;;;;6.05;3.97;;;3.00;89.60;;;;;;5095209;28;20123;-74
2021/12/03 02:13:23;;;;;;;6.65;4.50;;;3.00;89.50;;;;;;5093917;28;20137;-73
2021/12/03 02:15:50;;;;;;;6.72;4.60;;;3.10;89.60;;;;;;5093951;28;20031;-74
2021/12/03 02:18:17;;;;;;;5.53;4.32;;;3.10;89.60;;;;;;5095072;28;20024;-74
2021/12/03 02:20:51;;;;;;;8.02;4.35;;;3.10;89.60;;;;;;5093900;28;20394;-74
2021/12/03 02:23:18;;;;;;;5.68;4.25;;;3.20;89.60;;;;;;5095071;28;20051;-74
2021/12/03 02:25:45;;;;;;;5.05;3.97;;;3.20;89.50;;;;;;5093595;28;20100;-74
2021/12/03 02:28:12;;;;;;;8.43;4.78;;;3.20;89.40;;;;;;5093635;28;20491;-74
2021/12/03 02:30:38;;;;;;;7.88;4.47;;;3.20;89.30;;;;;;5093655;28;20024;-74
2021/12/03 02:33:04;;;;;;;5.40;4.13;;;3.20;89.30;;;;;;5094879;28;20030;-73
2021/12/03 02:35:30;;;;;;;5.65;4.32;;;3.20;89.30;;;;;;5093474;28;20207;-73
2021/12/03 02:37:56;;;;;;;6.35;4.95;;;3.20;89.30;;;;;;5094811;28;20042;-74
2021/12/03 02:40:23;;;;;;;7.45;4.55;;;3.20;89.30;;;;;;5093397;28;20119;-74
2021/12/03 02:42:50;;;;;;;7.68;4.88;;;3.20;89.30;;;;;;5093304;28;20039;-73
2021/12/03 02:45:17;;;;;;;8.10;4.95;;;3.20;89.20;;;;;;5094543;28;20027;-74
2021/12/03 02:47:43;;;;;;;8.05;4.75;;;3.20;89.30;;;;;;5093168;28;20479;-73
2021/12/03 02:50:11;;;;;;;7.90;5.28;;;3.30;89.30;;;;;;5093181;28;20414;-72
2021/12/03 02:52:37;;;;;;;7.68;5.18;;;3.30;89.90;;;;;;5093251;28;20062;-73
2021/12/03 02:55:04;;;;;;;6.60;5.22;;;3.30;89.30;;;;;;5093144;28;20032;-72
2021/12/03 02:57:30;;;;;;;7.60;4.80;;;3.30;89.20;;;;;;5094372;28;20115;-73
2021/12/03 02:59:55;;;;;;;8.55;5.30;;;3.30;89.20;;;;;;5093124;28;20123;-73
2021/12/03 03:02:21;;;;;;;7.40;5.28;;;3.30;89.20;;;;;;5093056;28;20388;-73
2021/12/03 03:04:48;;;;;;;6.88;4.93;;;3.30;89.20;;;;;;5094231;28;20399;-73
2021/12/03 03:07:14;;;;;;;8.68;4.63;;;3.30;89.20;;;;;;5094066;28;20086;-73
2021/12/03 03:09:43;;;;;;;9.00;5.18;;;3.30;89.10;;;;;;5094187;28;20015;-73
2021/12/03 03:12:10;;;;;;;6.22;5.03;;;3.30;89.10;;;;;;5092807;28;20116;-72
2021/12/03 03:14:42;;;;;;;9.57;4.70;;;3.30;89.20;;;;;;5094075;28;20039;-72
2021/12/03 03:17:07;;;;;;;9.77;5.20;;;3.30;89.20;;;;;;5093995;28;20036;-73
2021/12/03 03:19:33;;;;;;;7.30;5.00;;;3.30;89.20;;;;;;5092215;28;20042;-73
2021/12/03 03:21:58;;;;;;;7.50;4.82;;;3.30;89.20;;;;;;5092544;28;20030;-73
2021/12/03 03:24:24;;;;;;;7.97;4.82;;;3.30;89.10;;;;;;5094078;28;20063;-73
2021/12/03 03:26:50;;;;;;;9.70;6.32;;;3.30;89.10;;;;;;5092519;28;20051;-73
2021/12/03 03:29:17;;;;;;;6.20;5.13;;;3.30;89.10;;;;;;5093798;28;20077;-72
2021/12/03 03:31:43;;;;;;;9.38;5.40;;;3.40;89.10;;;;;;5093862;28;20476;-73
2021/12/03 03:34:10;;;;;;;6.72;5.05;;;3.30;89.10;;;;;;5092347;28;20406;-73
2021/12/03 03:36:38;;;;;;;7.15;5.00;;;3.30;89.00;;;;;;5092334;28;20035;-72
2021/12/03 03:39:06;;;;;;;8.30;5.88;;;3.30;89.00;;;;;;5093611;28;20058;-72
2021/12/03 03:41:32;;;;;;;7.97;5.95;;;3.40;89.10;;;;;;5093539;28;20392;-72
2021/12/03 03:43:58;;;;;;;10.30;6.07;;;3.30;89.00;;;;;;5092201;28;20177;-72
2021/12/03 03:46:24;;;;;;;9.35;6.20;;;3.40;89.00;;;;;;5092091;28;20555;-72
2021/12/03 03:48:50;;;;;;;9.80;6.22;;;3.30;88.90;;;;;;5093419;28;20496;-72
2021/12/03 03:51:16;;;;;;;10.20;6.45;;;3.40;89.00;;;;;;5092191;28;20031;-72
2021/12/03 03:53:42;;;;;;;11.15;7.50;;;3.40;88.90;;;;;;5092053;28;20142;-72
2021/12/03 03:56:09;;;;;;;9.00;6.68;;;3.40;88.90;;;;;;5092020;28;20024;-73
2021/12/03 03:58:37;;;;;;;10.18;6.47;;;3.40;88.80;;;;;;5092107;28;20032;-72
2021/12/03 04:01:05;;;;;;;8.80;6.63;;;3.40;88.80;;;;;;5091962;28;20024;-72
2021/12/03 04:03:31;;;;;;;12.35;7.15;;;3.40;88.80;;;;;;5091983;28;20032;-72
2021/12/03 04:05:58;;;;;;;10.65;7.43;;;3.40;88.80;;;;;;5093183;28;20036;-72
2021/12/03 04:08:23;;;;;;;12.18;7.97;;;3.50;88.80;;;;;;5091679;28;20044;-73
2021/12/03 04:10:49;;;;;;;11.50;7.35;;;3.50;88.80;;;;;;5093243;28;20118;-72
2021/12/03 04:13:15;;;;;;;11.73;8.27;;;3.50;88.70;;;;;;5092176;28;20024;-72
2021/12/03 04:15:42;;;;;;;12.77;8.90;;;3.50;88.70;;;;;;5091838;28;20035;-72
2021/12/03 04:18:08;;;;;;;10.63;7.90;;;3.50;88.70;;;;;;5091743;28;20092;-72
2021/12/03 04:20:35;;;;;;;12.18;8.73;;;3.50;88.70;;;;;;5091790;28;20027;-72
2021/12/03 04:23:00;;;;;;;13.00;9.18;;;3.50;88.70;;;;;;5091640;28;20027;-73
2021/12/03 04:25:26;;;;;;;15.35;10.40;;;3.50;88.70;;;;;;5092939;28;20606;-73
2021/12/03 04:27:52;;;;;;;15.40;10.27;;;3.50;88.70;;;;;;5091670;28;20027;-72
2021/12/03 04:30:23;;;;;;;15.07;10.32;;;3.60;88.80;;;;;;5091597;28;20131;-73
2021/12/03 04:32:49;;;;;;;15.65;10.32;;;3.50;88.70;;;;;;5090747;28;20502;-73
2021/12/03 04:35:16;;;;;;;17.15;10.63;;;3.60;88.80;;;;;;5091551;28;20020;-72
2021/12/03 04:37:41;;;;;;;18.00;11.13;;;3.60;88.80;;;;;;5091545;28;20052;-72
2021/12/03 04:40:10;;;;;;;16.63;10.73;;;3.60;88.80;;;;;;5091500;28;20028;-74
2021/12/03 04:42:36;;;;;;;17.95;11.90;;;3.60;88.80;;;;;;5092893;28;20020;-73
2021/12/03 04:45:04;;;;;;;17.60;10.32;;;3.60;88.80;;;;;;5091295;28;20063;-74
2021/12/03 04:47:29;;;;;;;16.35;11.32;;;3.60;88.80;;;;;;5092695;28;20584;-74
2021/12/03 04:49:55;;;;;;;18.48;12.27;;;3.70;88.70;;;;;;5091431;28;20099;-73
2021/12/03 04:52:21;;;;;;;18.23;11.55;;;3.70;88.70;;;;;;5092607;28;20016;-72
2021/12/03 04:54:46;;;;;;;19.38;12.55;;;3.70;88.80;;;;;;5091318;28;20485;-72
2021/12/03 04:57:12;;;;;;;19.27;11.93;;;3.70;88.80;;;;;;5092657;28;20020;-73
2021/12/03 04:59:37;;;;;;;21.58;12.55;;;3.70;88.80;;;;;;5092611;28;20050;-73
2021/12/03 05:02:03;;;;;;;20.30;12.88;;;3.70;88.70;;;;;;5092669;28;20050;-73
2021/12/03 05:04:36;;;;;;;21.65;14.20;;;3.70;88.70;;;;;;5092477;28;20056;-73
2021/12/03 05:09:31;;;;;;;27.85;16.30;;;3.70;88.70;;;;;;5092784;28;20411;-73
2021/12/03 05:11:58;;;;;;;27.98;15.68;;;3.70;88.60;;;;;;5091234;28;20411;-74
2021/12/03 05:14:23;;;;;;;28.73;16.95;;;3.70;88.70;;;;;;5091112;28;20051;-73
2021/12/03 05:16:49;;;;;;;29.88;16.25;;;3.70;88.80;;;;;;5092558;28;20093;-73
2021/12/03 05:19:18;;;;;;;28.55;16.05;;;3.70;88.80;;;;;;5091054;28;20025;-73
2021/12/03 05:21:44;;;;;;;31.05;16.38;;;3.70;88.80;;;;;;5092460;28;20047;-73
2021/12/03 05:24:11;;;;;;;33.40;16.60;;;3.70;88.90;;;;;;5088047;28;20024;-72
2021/12/03 05:26:38;;;;;;;33.15;15.90;;;3.70;88.90;;;;;;5092348;28;20031;-73
2021/12/03 05:29:06;;;;;;;30.23;16.17;;;3.70;88.80;;;;;;5092309;28;20156;-73
2021/12/03 05:31:33;;;;;;;32.28;17.15;;;3.80;88.80;;;;;;5092268;28;20043;-73
2021/12/03 05:33:59;;;;;;;35.47;17.73;;;3.80;88.90;;;;;;5091102;28;20192;-73
2021/12/03 05:36:25;;;;;;;35.88;16.48;;;3.80;88.90;;;;;;5090989;28;20111;-73
2021/12/03 05:38:51;;;;;;;34.60;17.13;;;3.80;88.90;;;;;;5091030;28;20186;-73
2021/12/03 05:41:16;;;;;;;37.80;18.23;;;3.80;88.80;;;;;;5091019;28;20103;-73
2021/12/03 05:43:42;;;;;;;36.60;18.63;;;3.90;88.90;;;;;;5093983;28;20050;-73
2021/12/03 05:46:08;;;;;;;36.00;18.90;;;3.90;88.90;;;;;;5094372;28;20054;-74
2021/12/03 05:48:34;;;;;;;36.35;19.42;;;3.90;88.80;;;;;;5094491;28;20587;-77
2021/12/03 05:50:59;;;;;;;38.70;17.98;;;3.90;88.80;;;;;;5095750;28;20031;-76
2021/12/03 05:53:25;;;;;;;37.47;18.50;;;3.90;88.80;;;;;;5094477;28;20016;-77
2021/12/03 05:55:51;;;;;;;39.78;19.75;;;3.90;88.80;;;;;;5094225;28;20031;-77
2021/12/03 05:58:18;;;;;;;41.65;22.17;;;3.90;88.90;;;;;;5094260;28;20067;-76
2021/12/03 06:00:44;;;;;;;38.05;21.27;;;3.90;88.90;;;;;;5094248;28;20020;-77
2021/12/03 06:03:11;;;;;;;42.47;21.55;;;3.90;88.80;;;;;;5095478;28;20051;-76
2021/12/03 06:05:40;;;;;;;44.42;23.02;;;4.00;88.90;;;;;;5095480;28;20483;-76
2021/12/03 06:08:06;;;;;;;44.88;22.00;;;3.90;88.80;;;;;;5095313;28;20040;-77
2021/12/03 06:10:32;;;;;;;43.75;22.63;;;3.90;88.80;;;;;;5094112;28;20024;-77
2021/12/03 06:12:57;;;;;;;48.15;24.13;;;3.90;88.70;;;;;;5095357;28;20028;-77
2021/12/03 06:15:23;;;;;;;43.80;22.25;;;3.90;88.80;;;;;;5093914;28;20055;-77
2021/12/03 06:17:49;;;;;;;43.33;21.40;;;3.90;88.90;;;;;;5093986;28;20432;-77
2021/12/03 06:20:16;;;;;;;42.08;22.48;;;3.90;88.90;;;;;;5093880;28;20036;-77
2021/12/03 06:22:42;;;;;;;40.13;21.42;;;4.00;88.90;;;;;;5093746;28;20119;-77
2021/12/03 06:25:10;;;;;;;42.88;21.13;;;4.00;88.90;;;;;;5093765;28;20119;-77
2021/12/03 06:27:37;;;;;;;41.22;21.30;;;4.00;88.90;;;;;;5095010;28;20532;-77
2021/12/03 06:30:06;;;;;;;40.10;21.67;;;4.00;88.90;;;;;;5091013;28;20020;-77
2021/12/03 06:32:32;;;;;;;39.80;19.85;;;4.00;88.80;;;;;;5094985;28;20027;-77
2021/12/03 06:34:58;;;;;;;41.92;20.42;;;4.00;88.80;;;;;;5094819;28;20024;-76
2021/12/03 06:37:24;;;;;;;41.13;20.33;;;4.10;88.90;;;;;;5094787;28;20024;-77
2021/12/03 06:39:49;;;;;;;41.30;20.15;;;4.10;88.90;;;;;;5093497;28;20024;-77
2021/12/03 06:42:15;;;;;;;39.55;20.70;;;4.10;88.90;;;;;;5093368;28;20024;-77
2021/12/03 06:44:40;;;;;;;40.08;20.40;;;4.10;88.80;;;;;;5094727;28;20024;-77
2021/12/03 06:47:06;;;;;;;36.47;19.45;;;4.10;88.80;;;;;;5094677;28;20021;-77
2021/12/03 06:49:33;;;;;;;43.35;21.13;;;4.10;88.80;;;;;;5094598;28;20529;-77
2021/12/03 06:52:05;;;;;;;39.05;19.75;;;4.10;88.80;;;;;;5093059;28;20012;-77
2021/12/03 06:54:33;;;;;;;41.50;20.02;;;4.10;88.70;;;;;;5092455;28;20055;-77
2021/12/03 06:57:01;;;;;;;38.53;20.23;;;4.20;88.90;;;;;;5094106;28;20476;-77
2021/12/03 06:59:27;;;;;;;38.67;19.45;;;4.10;88.80;;;;;;5094513;28;20016;-77
2021/12/03 07:01:53;;;;;;;34.28;19.02;;;4.10;88.80;;;;;;5092966;28;20024;-77
2021/12/03 07:04:19;;;;;;;39.28;19.48;;;4.20;88.80;;;;;;5092913;28;20048;-77
2021/12/03 07:06:45;;;;;;;40.40;18.95;;;4.20;88.80;;;;;;5092784;28;20069;-77
2021/12/03 07:09:12;;;;;;;31.98;16.70;;;4.10;88.80;;;;;;5093886;28;20048;-77
2021/12/03 07:11:38;;;;;;;33.60;16.73;;;4.10;88.80;;;;;;5094069;28;20028;-76
2021/12/03 07:14:04;;;;;;;41.60;19.63;;;4.10;88.80;;;;;;5094096;28;20020;-77
2021/12/03 07:16:31;;;;;;;40.95;18.55;;;4.10;88.80;;;;;;5092683;28;20078;-77
2021/12/03 07:18:57;;;;;;;36.22;18.48;;;4.10;88.80;;;;;;5093953;28;20077;-77
2021/12/03 07:21:24;;;;;;;33.42;16.75;;;4.10;88.90;;;;;;5094011;28;20017;-77
2021/12/03 07:23:51;;;;;;;31.45;15.27;;;4.10;88.90;;;;;;5093800;28;20049;-77
2021/12/03 07:26:17;;;;;;;29.08;15.32;;;4.10;88.90;;;;;;5093834;28;20020;-77
2021/12/03 07:28:44;;;;;;;29.73;15.13;;;4.10;89.00;;;;;;5092516;28;20022;-77
2021/12/03 07:31:11;;;;;;;29.30;14.77;;;4.10;89.00;;;;;;5092416;28;20514;-77
2021/12/03 07:33:37;;;;;;;26.63;14.73;;;4.10;89.00;;;;;;5092438;28;20568;-77
2021/12/03 07:36:05;;;;;;;28.95;13.98;;;4.10;89.00;;;;;;5092417;28;20024;-77
2021/12/03 07:38:31;;;;;;;29.58;13.50;;;4.10;88.90;;;;;;5092315;28;20070;-76
2021/12/03 07:40:57;;;;;;;27.40;13.00;;;4.10;89.00;;;;;;5092637;28;20024;-76
2021/12/03 07:43:22;;;;;;;23.63;12.15;;;4.10;88.90;;;;;;5093547;28;20020;-77
2021/12/03 07:45:49;;;;;;;24.27;11.75;;;4.10;88.80;;;;;;5093429;28;20027;-77
2021/12/03 07:48:15;;;;;;;26.77;11.10;;;4.00;88.70;;;;;;5092479;28;20215;-77
2021/12/03 07:50:41;;;;;;;22.23;10.88;;;4.00;88.80;;;;;;5093348;28;20052;-77
2021/12/03 07:53:09;;;;;;;18.60;9.30;;;4.00;88.70;;;;;;5092385;28;20027;-77
2021/12/03 07:55:35;;;;;;;20.85;9.70;;;4.00;88.70;;;;;;5091988;28;20048;-76
2021/12/03 07:58:04;;;;;;;22.13;10.10;;;4.00;88.60;;;;;;5091904;28;20116;-77
2021/12/03 08:00:30;;;;;;;19.25;8.70;;;4.10;88.60;;;;;;5093315;28;20039;-77
2021/12/03 08:02:55;;;;;;;16.58;8.40;;;4.00;88.50;;;;;;5093171;28;20098;-77
2021/12/03 08:05:21;;;;;;;16.45;7.72;;;4.10;88.50;;;;;;5091820;28;20037;-77
2021/12/03 08:07:49;;;;;;;18.15;8.55;;;4.10;88.30;;;;;;5091661;28;20063;-77
2021/12/03 08:10:15;;;;;;;16.63;7.43;;;4.10;88.20;;;;;;5091813;28;20016;-77
2021/12/03 08:12:42;;;;;;;13.18;6.88;;;4.10;88.10;;;;;;5091728;28;20059;-77
2021/12/03 08:15:08;;;;;;;13.75;6.75;;;4.10;88.10;;;;;;5091947;28;20027;-76
2021/12/03 08:17:34;;;;;;;13.15;6.88;;;4.10;88.00;;;;;;5091621;28;20047;-76
2021/12/03 08:20:00;;;;;;;14.10;5.78;;;4.20;87.90;;;;;;5091616;28;20017;-76
2021/12/03 08:22:26;;;;;;;13.93;6.45;;;4.20;87.90;;;;;;5091647;28;20384;-76
2021/12/03 08:24:52;;;;;;;12.52;6.13;;;4.20;87.70;;;;;;5091580;28;20040;-76
2021/12/03 08:27:18;;;;;;;14.55;6.85;;;4.20;87.60;;;;;;5091636;28;20032;-76
2021/12/03 08:29:43;;;;;;;10.20;5.32;;;4.20;87.60;;;;;;5092892;28;20491;-76
2021/12/03 08:32:12;;;;;;;11.45;5.45;;;4.20;87.40;;;;;;5092928;28;20090;-76
2021/12/03 08:34:38;;;;;;;15.60;7.22;;;4.30;87.40;;;;;;5092728;28;20026;-76
2021/12/03 08:37:06;;;;;;;15.43;5.80;;;4.30;87.20;;;;;;5092080;28;20091;-76
2021/12/03 08:39:31;;;;;;;9.95;5.10;;;4.30;87.10;;;;;;5091520;28;20016;-76
2021/12/03 08:41:57;;;;;;;8.23;4.30;;;4.30;86.90;;;;;;5091941;28;20039;-75
2021/12/03 08:44:23;;;;;;;8.73;4.20;;;4.30;86.90;;;;;;5092453;28;20020;-76
2021/12/03 08:46:57;;;;;;;10.40;4.03;;;4.30;86.80;;;;;;5091911;28;20413;-74
2021/12/03 08:49:35;;;;;;;13.70;3.92;;;4.40;86.90;;;;;;5091585;28;20016;-76
2021/12/03 08:57:11;;;;;;;10.13;4.53;;;4.40;87.00;;;;;;5092886;28;20391;-76
2021/12/03 08:59:38;;;;;;;14.15;4.60;;;4.40;86.30;;;;;;5091324;28;20024;-77
2021/12/03 09:02:03;;;;;;;12.43;4.40;;;4.40;86.20;;;;;;5088542;28;20122;-77
2021/12/03 09:04:29;;;;;;;12.95;4.63;;;4.40;86.00;;;;;;5092404;28;20060;-76
2021/12/03 09:06:57;;;;;;;11.93;4.15;;;4.40;85.60;;;;;;5092454;28;20016;-76
2021/12/03 09:09:23;;;;;;;9.65;4.78;;;4.40;85.20;;;;;;5092592;28;20032;-77
2021/12/03 09:11:49;;;;;;;10.65;4.47;;;4.40;86.00;;;;;;5092454;28;20099;-77
2021/12/03 09:14:25;;;;;;;11.43;4.93;;;4.40;85.30;;;;;;5092539;28;20063;-77
2021/12/03 09:19:39;;;;;;;12.07;4.13;;;4.50;84.90;;;;;;5095688;28;20108;-76
2021/12/03 09:22:06;;;;;;;11.75;3.88;;;4.50;84.90;;;;;;5094914;28;20023;-77
2021/12/03 09:24:35;;;;;;;11.50;3.97;;;4.50;84.90;;;;;;5094855;28;20053;-77
2021/12/03 09:27:00;;;;;;;9.43;3.70;;;4.50;84.80;;;;;;5096066;28;20118;-78
2021/12/03 09:29:30;;;;;;;11.93;4.47;;;4.50;84.70;;;;;;5094850;28;20057;-78
2021/12/03 09:31:57;;;;;;;10.02;4.43;;;4.50;84.80;;;;;;5094780;28;20016;-76
2021/12/03 09:34:24;;;;;;;12.18;4.38;;;4.60;84.60;;;;;;5095920;28;20027;-75
2021/12/03 09:36:51;;;;;;;9.40;4.32;;;4.60;84.50;;;;;;5095855;28;20020;-76
2021/12/03 09:39:22;;;;;;;9.98;4.13;;;4.50;84.30;;;;;;5094639;28;20099;-75
2021/12/03 09:41:52;;;;;;;6.70;3.65;;;4.60;84.50;;;;;;5094536;28;20046;-76
2021/12/03 09:44:19;;;;;;;10.25;4.45;;;4.60;84.50;;;;;;5095606;28;20063;-76
2021/12/03 09:46:47;;;;;;;11.45;4.53;;;4.70;84.60;;;;;;5095624;28;20020;-76
2021/12/03 09:49:26;;;;;;;12.38;4.22;;;4.70;84.30;;;;;;5094333;28;20387;-76
2021/12/03 09:55:01;;;;;;;9.48;3.60;;;4.80;84.30;;;;;;5095590;28;20050;-76
2021/12/03 09:57:34;;;;;;;13.70;3.92;;;4.80;84.20;;;;;;5095355;28;20028;-75
2021/12/03 10:02:59;;;;;;;11.25;3.63;;;4.80;84.20;;;;;;5095671;28;20494;-75
2021/12/03 10:13:46;;;;;;;14.75;3.92;;;4.80;83.50;;;;;;5095507;28;20135;-76
2021/12/03 10:17:21;;;;;;;11.38;3.63;;;4.80;83.70;;;;;;5093954;28;20069;-76
2021/12/03 10:19:19;;;;;;;8.95;3.67;;;4.90;83.70;;;;;;5097878;28;20020;-78
2021/12/03 10:30:57;;;;;;;12.50;3.15;;;4.90;82.90;;;;;;5093992;28;20103;-77
2021/12/03 10:42:24;;;;;;;10.27;3.22;;;4.90;82.70;;;;;;5094925;28;20031;-77
2021/12/03 10:53:34;;;;;;;12.73;3.83;;;5.00;83.10;;;;;;5112716;28;20034;-76
2021/12/03 10:56:21;;;;;;;6.32;2.95;;;5.00;83.10;;;;;;5112852;28;20456;-78
2021/12/03 12:15:41;;;;;;;11.00;4.43;;;5.70;83.90;;;;;;5093420;28;20047;-78
2021/12/03 12:21:33;;;;;;;11.13;4.22;;;5.70;83.40;;;;;;5093297;28;20058;-76
2021/12/03 12:47:39;;;;;;;6.35;3.20;;;6.20;82.50;;;;;;5092738;28;20518;-74
2021/12/03 13:23:02;;;;;;;7.15;3.20;;;6.10;81.10;;;;;;5053693;28;20025;-75
2021/12/03 13:26:05;;;;;;;6.65;2.85;;;6.10;80.90;;;;;;5093290;28;20032;-75
2021/12/03 13:35:11;;;;;;;7.30;3.00;;;6.00;80.40;;;;;;5096480;28;20396;-73
2021/12/03 13:38:11;;;;;;;8.75;3.45;;;6.00;80.60;;;;;;5095802;28;20027;-73
2021/12/03 14:13:19;;;;;;;11.82;4.97;;;5.90;81.20;;;;;;5095589;28;20039;-73
2021/12/03 14:22:02;;;;;;;13.02;5.10;;;5.90;81.60;;;;;;5095466;28;20024;-72
2021/12/03 14:46:07;;;;;;;8.50;3.88;;;5.80;82.90;;;;;;5095013;28;20035;-74
2021/12/03 14:48:50;;;;;;;12.75;5.38;;;5.80;83.10;;;;;;5094475;28;20016;-74
2021/12/03 14:56:39;;;;;;;11.23;5.20;;;5.70;83.70;;;;;;5094551;28;20020;-74
2021/12/03 14:59:09;;;;;;;10.45;4.88;;;5.80;83.80;;;;;;5094510;28;20025;-74
2021/12/03 15:04:39;;;;;;;8.80;4.85;;;5.70;84.20;;;;;;5094350;28;20491;-73
2021/12/03 15:09:36;;;;;;;7.57;4.25;;;5.70;84.50;;;;;;5094286;28;20504;-72
2021/12/03 15:12:24;;;;;;;6.88;4.15;;;5.70;84.70;;;;;;5093009;28;20380;-73
2021/12/03 15:21:02;;;;;;;7.88;4.60;;;5.70;85.30;;;;;;5112719;28;20120;-72
2021/12/03 15:24:16;;;;;;;8.27;4.50;;;5.60;85.30;;;;;;5098375;28;20136;-73
2021/12/03 15:26:33;;;;;;;7.88;4.55;;;5.60;85.50;;;;;;5093766;28;20061;-73
2021/12/03 15:34:47;;;;;;;8.97;4.97;;;5.60;86.00;;;;;;5100908;28;20438;-72
2021/12/03 15:37:20;;;;;;;8.50;4.18;;;5.70;86.10;;;;;;5092138;28;20020;-72
2021/12/03 15:54:15;;;;;;;;;;;5.60;86.80;;;;;;5094223;28;20148;-74
2021/12/03 16:04:17;;;;;;;5.95;3.10;;;5.60;87.20;;;;;;5093434;28;20066;-73
2021/12/03 16:07:39;;;;;;;5.28;3.70;;;5.60;87.40;;;;;;5091901;28;20062;-74
2021/12/03 16:20:39;;;;;;;6.28;2.92;;;5.60;87.80;;;;;;5093397;28;20587;-74
2021/12/03 16:53:21;;;;;;;5.85;3.95;;;5.60;89.00;;;;;;5093281;28;20031;-75
2021/12/03 16:55:58;;;;;;;;;;;5.60;89.00;;;;;;5091869;28;20043;-74
2021/12/03 16:58:23;;;;;;;5.32;3.83;;;5.60;89.70;;;;;;5092669;28;19905;-74
2021/12/03 17:01:14;;;;;;;4.22;3.20;;;5.60;89.20;;;;;;5091424;28;20029;-74
2021/12/03 17:19:47;;;;;;;7.60;4.93;;;5.70;89.50;;;;;;5092485;28;20144;-74
2021/12/03 17:29:58;;;;;;;5.53;4.10;;;5.70;89.40;;;;;;5092481;28;20073;-74
2021/12/03 17:46:20;;;;;;;;;;;5.80;89.40;;;;;;5096418;28;20157;-74
2021/12/03 17:48:54;;;;;;;4.20;3.45;;;5.80;89.40;;;;;;5095679;28;19948;-74
2021/12/03 17:54:22;;;;;;;5.82;3.90;;;5.80;89.40;;;;;;5095647;28;20476;-75
2021/12/03 17:56:50;;;;;;;3.50;3.20;;;5.80;89.40;;;;;;5094433;28;20024;-75
2021/12/03 17:59:22;;;;;;;4.00;3.60;;;5.80;89.50;;;;;;5095736;28;20040;-75
2021/12/03 18:12:24;;;;;;;4.10;3.70;;;5.90;89.40;;;;;;5095427;28;20484;-75
2021/12/03 18:48:22;;;;;;;3.97;3.58;;;6.00;89.10;;;;;;5113152;28;20031;-76
2021/12/03 18:56:20;;;;;;;3.58;3.20;;;6.10;89.10;;;;;;5095198;28;20488;-75
2021/12/03 18:58:53;;;;;;;3.65;3.25;;;6.00;88.90;;;;;;5095013;28;20032;-75
2021/12/03 19:04:50;;;;;;;3.85;3.50;;;6.00;89.00;;;;;;5095434;28;20066;-77
2021/12/03 19:07:29;;;;;;;4.30;3.90;;;6.00;89.00;;;;;;5093666;28;20027;-76
2021/12/03 19:09:59;;;;;;;3.60;3.30;;;6.00;89.10;;;;;;5093644;28;20027;-74
2021/12/03 19:12:27;;;;;;;4.00;3.63;;;6.00;89.10;;;;;;5075328;28;20055;-76
2021/12/03 19:14:56;;;;;;;4.82;4.43;;;6.00;89.00;;;;;;5075361;28;20038;-75
2021/12/03 19:17:23;;;;;;;5.32;4.82;;;6.00;89.00;;;;;;5075330;28;20101;-75
2021/12/03 19:19:53;;;;;;;4.53;4.10;;;6.00;89.10;;;;;;5075357;28;20120;-74
2021/12/03 19:25:23;;;;;;;5.00;4.50;;;6.00;89.10;;;;;;5072527;28;20534;-76
2021/12/03 19:27:48;;;;;;;6.00;5.32;;;6.10;89.20;;;;;;5072040;28;20037;-75
2021/12/03 19:30:15;;;;;;;4.93;4.53;;;6.10;89.20;;;;;;5055147;28;20601;-75
2021/12/03 19:32:42;;;;;;;4.70;4.30;;;6.10;89.20;;;;;;5055418;28;20439;-77
2021/12/03 19:35:50;;;;;;;4.70;4.28;;;6.10;89.20;;;;;;5072126;28;20036;-77
2021/12/03 19:38:18;;;;;;;4.95;4.50;;;6.10;89.20;;;;;;5054687;28;20036;-77
2021/12/03 19:40:57;;;;;;;5.28;4.78;;;6.10;89.20;;;;;;5054728;28;20441;-75
2021/12/03 19:43:34;;;;;;;5.28;4.88;;;6.10;89.20;;;;;;5082784;28;20515;-76
2021/12/03 19:46:04;;;;;;;4.95;4.55;;;6.10;89.20;;;;;;5074555;28;20024;-76
2021/12/03 19:48:41;;;;;;;4.80;4.40;;;6.10;89.20;;;;;;5074691;28;20020;-76
2021/12/03 19:51:14;;;;;;;5.20;4.80;;;6.10;89.30;;;;;;5074553;28;20117;-76
2021/12/03 19:53:48;;;;;;;4.90;4.40;;;6.10;89.20;;;;;;5091515;28;20028;-76
2021/12/03 19:56:19;;;;;;;5.82;5.32;;;6.10;89.30;;;;;;5091455;28;20414;-77
2021/12/03 19:58:44;;;;;;;5.25;4.80;;;6.10;89.30;;;;;;5074556;28;20040;-76
2021/12/03 20:01:10;;;;;;;6.40;5.50;;;6.10;89.30;;;;;;5074472;28;20039;-77
2021/12/03 20:03:36;;;;;;;6.40;5.80;;;6.10;89.50;;;;;;5110439;28;20090;-75
2021/12/03 20:06:02;;;;;;;7.35;6.53;;;6.00;89.50;;;;;;5094437;28;20114;-75
2021/12/03 20:08:29;;;;;;;5.78;5.28;;;6.00;89.60;;;;;;5111246;28;20138;-76
2021/12/03 20:11:01;;;;;;;6.90;5.45;;;6.00;89.70;;;;;;5111460;28;20376;-78
2021/12/03 20:17:04;;;;;;;9.57;6.90;;;6.10;89.80;;;;;;5111576;28;20034;-74